Overview Statistics Trail Chart Weather Telemetry Raw packets
 

This is the latest recevied weather packets stored in our database for station/object OK1TBM-13. If no packets are shown the sender has not sent any weather packets the latest 10 day(s).

<< 77 78 79 80 81 82 83 >>
Time Temp. Humidity Pressure Rain* Wind** Luminosity Snow
1787944801 24.44° C 67% 1012.5 hPa 0 mm - 0 W/m² -
1787944501 25° C 62% 1012.5 hPa 0 mm - 0 W/m² -
1787944201 25.56° C 53% 1012.2 hPa 0 mm - 0 W/m² -
1787943901 25.56° C 51% 1012.2 hPa 0 mm - 0 W/m² -
1787943601 25.56° C 51% 1011.8 hPa 0 mm - 0 W/m² -
1787943301 25° C 54% 1011.8 hPa 0 mm - 0 W/m² -
1787943000 25.56° C 52% 1011.8 hPa 0 mm - 0 W/m² -
1787942700 25.56° C 50% 1011.5 hPa 0 mm - 0 W/m² -
1787942401 25.56° C 50% 1011.5 hPa 0 mm - 0 W/m² -
1787942101 26.11° C 49% 1011.2 hPa 0 mm - 0 W/m² -
1787941802 26.11° C 47% 1011.2 hPa 0 mm - 0 W/m² -
1787941502 26.11° C 48% 1011.2 hPa 0 mm - 0 W/m² -
1787941200 26.11° C 50% 1011.2 hPa 0 mm - 0 W/m² -
1787940901 26.67° C 49% 1011.2 hPa 0 mm - 0 W/m² -
1787940601 26.67° C 48% 1011.2 hPa 0 mm - 0 W/m² -
1787940301 26.67° C 47% 1011.2 hPa 0 mm - 0 W/m² -
1787940002 26.67° C 48% 1010.5 hPa 0 mm - 0 W/m² -
1787939701 26.67° C 48% 1010.5 hPa 0 mm - 1 W/m² -
1787939101 26.67° C 49% 1010.5 hPa 0 mm - 3 W/m² -
1787938800 26.67° C 49% 1010.5 hPa 0 mm - 4 W/m² -
1787938501 26.67° C 48% 1010.8 hPa 0 mm - 6 W/m² -
1787938200 27.22° C 47% 1010.8 hPa 0 mm - 10 W/m² -
1787937901 27.78° C 46% 1010.8 hPa 0 mm - 14 W/m² -
1787937601 27.78° C 46% 1010.8 hPa 0 mm - 16 W/m² -
1787937301 27.78° C 47% 1010.8 hPa 0 mm - 19 W/m² -

* Rain latest hour (hover to see other rain measurements)
** Current wind speed in m/s (hover to see current wind gust speed)